Voyager Of The Seas — C6SE5 — position and weather

sailwx.info

Track history (hours):
 
Tides and Currents Weather Stations Pressure Air Temp Water Temp Dewpoint Dewpoint Depression Visibility Wind Speed Wind Dir Waves Ship Positions

Voyager Of The Seas

Operator: Royal Caribbean Cruises Ltd

Last reported at 2019-Jun-14 09:35 UTC. Time now 2019-Jun-16 01:16 UTC.
Position N 01°11' E 103°37'.

Type: Passenger vessel. MMSI: 311317000.

Date/timePositionNaut miles runAvg speedWind from/ knotsBaromVisibWave heightAir tempDewpointWater temp
2019-Jun-14 09:35N 01°11' E 103°37'319.3
2019-Jun-14 09:27N 01°11' E 103°39'716.6
2019-Jun-14 09:00N 01°10' E 103°47'713.4
2019-Jun-14 08:30N 01°14' E 103°52'2 4.6
2019-Jun-14 08:00N 01°16' E 103°52'0 0.0
2019-Jun-14 07:30N 01°16' E 103°52'0 0.0
2019-Jun-14 07:00N 01°16' E 103°52'0 0.0
2019-Jun-14 06:30N 01°16' E 103°52'0 0.0
2019-Jun-14 06:00N 01°16' E 103°52'0 0.0
2019-Jun-14 05:30N 01°16' E 103°52'0 0.0
2019-Jun-14 05:00N 01°16' E 103°52'0 0.0
2019-Jun-14 04:30N 01°16' E 103°52'0 0.0
2019-Jun-14 04:00N 01°16' E 103°52'0 0.0
2019-Jun-14 03:30N 01°16' E 103°52'0 0.0
2019-Jun-14 03:00N 01°16' E 103°52'0 0.0
2019-Jun-14 02:30N 01°16' E 103°52'0 0.0
2019-Jun-14 01:57N 01°16' E 103°52'0 0.0
2019-Jun-14 01:30N 01°16' E 103°52'0 0.0
2019-Jun-14 01:00N 01°16' E 103°52'0 0.0
2019-Jun-14 00:30N 01°16' E 103°52'0 0.0
2019-Jun-14 00:00N 01°16' E 103°52'1 1.1
2019-Jun-13 23:30N 01°15' E 103°51'4 7.1
2019-Jun-13 23:00N 01°12' E 103°53'611.2
2019-Jun-13 22:30N 01°10' E 103°48'611.8
2019-Jun-13 22:00N 01°06' E 103°44'611.9
2019-Jun-13 21:30N 01°04' E 103°38'711.8
2019-Jun-13 20:53N 01°07' E 103°31'  
2019-Jun-10 09:38N 01°11' E 103°37'317.8
2019-Jun-10 09:30N 01°11' E 103°39'816.9
2019-Jun-10 09:01N 01°10' E 103°48'611.7
2019-Jun-10 08:30N 01°14' E 103°52'2 3.0
2019-Jun-10 08:00N 01°16' E 103°52'0 0.0
2019-Jun-10 07:30N 01°16' E 103°52'0 0.0
2019-Jun-10 07:00N 01°16' E 103°52'0 0.0
2019-Jun-10 06:30N 01°16' E 103°52'0 0.0
2019-Jun-10 06:00N 01°16' E 103°52'0 0.0
2019-Jun-10 05:30N 01°16' E 103°52'0 0.0
2019-Jun-10 05:00N 01°16' E 103°52'0 0.0
2019-Jun-10 04:30N 01°16' E 103°52'0 0.0
2019-Jun-10 04:00N 01°16' E 103°52'0 0.0
2019-Jun-10 03:30N 01°16' E 103°52'0 0.0
2019-Jun-10 03:00N 01°16' E 103°52'0 0.0
2019-Jun-10 02:30N 01°16' E 103°52'0 0.0
2019-Jun-10 02:00N 01°16' E 103°52'0 0.0
2019-Jun-10 01:27N 01°16' E 103°52'0 0.0
2019-Jun-10 01:00N 01°16' E 103°52'0 0.0
2019-Jun-10 00:21N 01°16' E 103°52'0 0.0
2019-Jun-10 00:00N 01°16' E 103°52'0 0.0
2019-Jun-09 23:30N 01°16' E 103°52'1 2.2
2019-Jun-09 23:00N 01°15' E 103°52'3 6.4
2019-Jun-09 22:30N 01°12' E 103°52'713.1
2019-Jun-09 22:00N 01°08' E 103°47'714.2
2019-Jun-09 21:30N 01°04' E 103°41'611.4
2019-Jun-09 21:01N 01°04' E 103°36'160 3.1
2019-Jun-07 18:00N 02°36' E 101°24'15819.0 180 / 101007.0 29.0 28.0
2019-Jun-07 09:41N 01°11' E 103°37'418.6
2019-Jun-07 09:28N 01°10' E 103°41'817.6
2019-Jun-07 09:01N 01°11' E 103°49'5 9.3
2019-Jun-07 08:30N 01°15' E 103°52'1 1.6
2019-Jun-07 07:55N 01°16' E 103°52'0 0.0
2019-Jun-07 07:28N 01°16' E 103°52'0 0.0
2019-Jun-07 06:58N 01°16' E 103°52'0 0.0
2019-Jun-07 06:28N 01°16' E 103°52'0 0.0
2019-Jun-07 05:58N 01°16' E 103°52'0 0.0
2019-Jun-07 05:28N 01°16' E 103°52'0 0.0
2019-Jun-07 04:58N 01°16' E 103°52'0 0.1
2019-Jun-07 04:28N 01°16' E 103°52'0 0.1
2019-Jun-07 03:58N 01°16' E 103°52'0 0.0
2019-Jun-07 03:25N 01°16' E 103°52'0 0.0
2019-Jun-07 02:58N 01°16' E 103°52'0 0.0
2019-Jun-07 02:28N 01°16' E 103°52'0 0.0
2019-Jun-07 01:58N 01°16' E 103°52'0 0.0
2019-Jun-07 01:28N 01°16' E 103°52'0 0.0
2019-Jun-07 00:58N 01°16' E 103°52'0 0.0
2019-Jun-07 00:28N 01°16' E 103°52'0 0.0
2019-Jun-06 23:58N 01°16' E 103°52'0 1.0
2019-Jun-06 23:31N 01°16' E 103°51'4 7.0
2019-Jun-06 23:01N 01°12' E 103°53'611.8
2019-Jun-06 22:30N 01°09' E 103°48'612.9
2019-Jun-06 22:00N 01°05' E 103°43'611.9
2019-Jun-06 21:30N 01°04' E 103°37'712.6
2019-Jun-06 20:58N 01°07' E 103°31'4414.6
2019-Jun-06 18:00N 01°30' E 102°54'8714.4 260 / 111007.7 27.027.030.0
2019-Jun-06 12:00N 02°18' E 101°42'   170 / 131007.0 5.4 28.0 28.0
Track history (hours):
 
Tides and Currents Weather Stations Pressure Air Temp Water Temp Dewpoint Dewpoint Depression Visibility Wind Speed Wind Dir Waves Ship Positions

Voyager Of The Seas

Operator: Royal Caribbean Cruises Ltd

Last reported at 2019-Jun-14 09:35 UTC. Time now 2019-Jun-16 01:16 UTC.
Position N 01°11' E 103°37'.

Type: Passenger vessel. MMSI: 311317000.

Date/timePositionNaut miles runAvg speedWind from/ knotsBaromVisibWave heightAir tempDewpointWater temp
2019-Jun-14 09:35N 01°11' E 103°37'319.3
2019-Jun-14 09:27N 01°11' E 103°39'716.6
2019-Jun-14 09:00N 01°10' E 103°47'713.4
2019-Jun-14 08:30N 01°14' E 103°52'2 4.6
2019-Jun-14 08:00N 01°16' E 103°52'0 0.0
2019-Jun-14 07:30N 01°16' E 103°52'0 0.0
2019-Jun-14 07:00N 01°16' E 103°52'0 0.0
2019-Jun-14 06:30N 01°16' E 103°52'0 0.0
2019-Jun-14 06:00N 01°16' E 103°52'0 0.0
2019-Jun-14 05:30N 01°16' E 103°52'0 0.0
2019-Jun-14 05:00N 01°16' E 103°52'0 0.0
2019-Jun-14 04:30N 01°16' E 103°52'0 0.0
2019-Jun-14 04:00N 01°16' E 103°52'0 0.0
2019-Jun-14 03:30N 01°16' E 103°52'0 0.0
2019-Jun-14 03:00N 01°16' E 103°52'0 0.0
2019-Jun-14 02:30N 01°16' E 103°52'0 0.0
2019-Jun-14 01:57N 01°16' E 103°52'0 0.0
2019-Jun-14 01:30N 01°16' E 103°52'0 0.0
2019-Jun-14 01:00N 01°16' E 103°52'0 0.0
2019-Jun-14 00:30N 01°16' E 103°52'0 0.0
2019-Jun-14 00:00N 01°16' E 103°52'1 1.1
2019-Jun-13 23:30N 01°15' E 103°51'4 7.1
2019-Jun-13 23:00N 01°12' E 103°53'611.2
2019-Jun-13 22:30N 01°10' E 103°48'611.8
2019-Jun-13 22:00N 01°06' E 103°44'611.9
2019-Jun-13 21:30N 01°04' E 103°38'711.8
2019-Jun-13 20:53N 01°07' E 103°31'  
2019-Jun-10 09:38N 01°11' E 103°37'317.8
2019-Jun-10 09:30N 01°11' E 103°39'816.9
2019-Jun-10 09:01N 01°10' E 103°48'611.7
2019-Jun-10 08:30N 01°14' E 103°52'2 3.0
2019-Jun-10 08:00N 01°16' E 103°52'0 0.0
2019-Jun-10 07:30N 01°16' E 103°52'0 0.0
2019-Jun-10 07:00N 01°16' E 103°52'0 0.0
2019-Jun-10 06:30N 01°16' E 103°52'0 0.0
2019-Jun-10 06:00N 01°16' E 103°52'0 0.0
2019-Jun-10 05:30N 01°16' E 103°52'0 0.0
2019-Jun-10 05:00N 01°16' E 103°52'0 0.0
2019-Jun-10 04:30N 01°16' E 103°52'0 0.0
2019-Jun-10 04:00N 01°16' E 103°52'0 0.0
2019-Jun-10 03:30N 01°16' E 103°52'0 0.0
2019-Jun-10 03:00N 01°16' E 103°52'0 0.0
2019-Jun-10 02:30N 01°16' E 103°52'0 0.0
2019-Jun-10 02:00N 01°16' E 103°52'0 0.0
2019-Jun-10 01:27N 01°16' E 103°52'0 0.0
2019-Jun-10 01:00N 01°16' E 103°52'0 0.0
2019-Jun-10 00:21N 01°16' E 103°52'0 0.0
2019-Jun-10 00:00N 01°16' E 103°52'0 0.0
2019-Jun-09 23:30N 01°16' E 103°52'1 2.2
2019-Jun-09 23:00N 01°15' E 103°52'3 6.4
2019-Jun-09 22:30N 01°12' E 103°52'713.1
2019-Jun-09 22:00N 01°08' E 103°47'714.2
2019-Jun-09 21:30N 01°04' E 103°41'611.4
2019-Jun-09 21:01N 01°04' E 103°36'160 3.1
2019-Jun-07 18:00N 02°36' E 101°24'15819.0 180 / 101007.0 29.0 28.0
2019-Jun-07 09:41N 01°11' E 103°37'418.6
2019-Jun-07 09:28N 01°10' E 103°41'817.6
2019-Jun-07 09:01N 01°11' E 103°49'5 9.3
2019-Jun-07 08:30N 01°15' E 103°52'1 1.6
2019-Jun-07 07:55N 01°16' E 103°52'0 0.0
2019-Jun-07 07:28N 01°16' E 103°52'0 0.0
2019-Jun-07 06:58N 01°16' E 103°52'0 0.0
2019-Jun-07 06:28N 01°16' E 103°52'0 0.0
2019-Jun-07 05:58N 01°16' E 103°52'0 0.0
2019-Jun-07 05:28N 01°16' E 103°52'0 0.0
2019-Jun-07 04:58N 01°16' E 103°52'0 0.1
2019-Jun-07 04:28N 01°16' E 103°52'0 0.1
2019-Jun-07 03:58N 01°16' E 103°52'0 0.0
2019-Jun-07 03:25N 01°16' E 103°52'0 0.0
2019-Jun-07 02:58N 01°16' E 103°52'0 0.0
2019-Jun-07 02:28N 01°16' E 103°52'0 0.0
2019-Jun-07 01:58N 01°16' E 103°52'0 0.0
2019-Jun-07 01:28N 01°16' E 103°52'0 0.0
2019-Jun-07 00:58N 01°16' E 103°52'0 0.0
2019-Jun-07 00:28N 01°16' E 103°52'0 0.0
2019-Jun-06 23:58N 01°16' E 103°52'0 1.0
2019-Jun-06 23:31N 01°16' E 103°51'4 7.0
2019-Jun-06 23:01N 01°12' E 103°53'611.8
2019-Jun-06 22:30N 01°09' E 103°48'612.9
2019-Jun-06 22:00N 01°05' E 103°43'611.9
2019-Jun-06 21:30N 01°04' E 103°37'712.6
2019-Jun-06 20:58N 01°07' E 103°31'4414.6
2019-Jun-06 18:00N 01°30' E 102°54'8714.4 260 / 111007.7 27.027.030.0
2019-Jun-06 12:00N 02°18' E 101°42'   170 / 131007.0 5.4 28.0 28.0

Dump ship's entire track history